Time;durP1;ratioP1;P1;durP2;ratioP2;P2;SDS_P1;SDS_P2;PMS_P1;PMS_P2;Temp;Humidity;BMP_temperature;BMP_pressure;BME280_temperature;BME280_humidity;BME280_pressure;Samples;Min_cycle;Max_cycle;Signal;HPM_P1;HPM_P2
2022/01/09 00:00:27;;;;;;;4.97;3.70;;;;;;;28.39;54.30;101197.16;5089906;27;65147;-39
2022/01/09 00:03:01;;;;;;;3.47;3.03;;;;;;;28.58;54.63;101229.91;5068530;27;69699;-37
2022/01/09 00:05:32;;;;;;;4.13;3.50;;;;;;;28.63;54.02;101236.38;5085312;27;65643;-37
2022/01/09 00:08:03;;;;;;;4.10;3.28;;;;;;;28.67;54.49;101242.25;5082959;27;70173;-37
2022/01/09 00:10:35;;;;;;;9.82;3.22;;;;;;;28.71;54.46;101254.31;5083388;27;65683;-38
2022/01/09 00:13:05;;;;;;;4.95;4.28;;;;;;;28.71;55.56;101240.81;5082713;27;69225;-38
2022/01/09 00:15:36;;;;;;;11.35;5.10;;;;;;;28.77;57.07;101247.28;5092582;27;65533;-38
2022/01/09 00:18:06;;;;;;;18.30;6.68;;;;;;;28.86;57.20;101257.75;5088342;27;70277;-39
2022/01/09 00:20:36;;;;;;;14.38;6.50;;;;;;;28.90;58.00;101258.19;5091006;27;66785;-39
2022/01/09 00:23:06;;;;;;;27.23;7.25;;;;;;;28.94;58.95;101262.97;5087307;27;70974;-38
2022/01/09 00:25:37;;;;;;;19.45;6.13;;;;;;;28.98;59.35;101262.59;5093601;27;65371;-37
2022/01/09 00:28:07;;;;;;;24.95;7.25;;;;;;;29.04;59.82;101262.66;5099954;27;69686;-37
2022/01/09 00:30:38;;;;;;;21.15;8.60;;;;;;;29.10;60.46;101269.13;5090644;27;65899;-38
2022/01/09 00:33:08;;;;;;;34.65;10.23;;;;;;;29.14;60.02;101278.50;5095677;27;69434;-39
2022/01/09 00:35:39;;;;;;;26.13;10.90;;;;;;;29.11;60.55;101270.78;5087359;27;65132;-38
2022/01/09 00:38:09;;;;;;;32.83;11.85;;;;;;;29.20;60.49;101284.97;5091179;27;70120;-38
2022/01/09 00:40:39;;;;;;;31.92;11.85;;;;;;;29.24;61.21;101297.06;5081886;27;64281;-38
2022/01/09 00:43:09;;;;;;;28.05;11.55;;;;;;;29.24;61.58;101292.47;5084293;27;69994;-37
2022/01/09 00:45:41;;;;;;;32.38;12.00;;;;;;;28.92;61.17;101239.94;5088806;27;66622;-37
2022/01/09 00:48:12;;;;;;;;;;;;;;;29.01;62.97;101300.84;5084145;27;68720;-38
2022/01/09 00:50:43;;;;;;;23.88;10.05;;;;;;;29.26;61.72;101300.41;5091502;27;65316;-37
2022/01/09 00:53:13;;;;;;;24.87;10.03;;;;;;;29.30;61.72;101302.50;5089289;27;70305;-39
2022/01/09 00:55:44;;;;;;;27.35;9.55;;;;;;;29.33;62.42;101299.38;5086958;27;66104;-38
2022/01/09 00:58:14;;;;;;;24.92;10.75;;;;;;;29.33;62.06;101301.25;5090228;27;70578;-38
2022/01/09 01:00:44;;;;;;;19.80;8.63;;;;;;;29.34;62.22;101302.94;5089926;27;66486;-38
2022/01/09 01:03:15;;;;;;;16.02;8.82;;;;;;;29.38;61.87;101305.03;5081199;27;69719;-38
2022/01/09 01:05:45;;;;;;;20.42;9.15;;;;;;;29.41;62.75;101309.19;5088206;27;65872;-37
2022/01/09 01:08:15;;;;;;;20.63;8.93;;;;;;;29.44;62.29;101299.88;5093452;27;69831;-39
2022/01/09 01:10:46;;;;;;;17.67;8.50;;;;;;;29.38;62.85;101293.38;5089105;27;66174;-39
2022/01/09 01:13:16;;;;;;;23.75;9.43;;;;;;;29.44;62.65;101299.88;5094950;27;70655;-38
2022/01/09 01:15:47;;;;;;;24.63;9.88;;;;;;;29.40;62.72;101302.97;5088259;27;65616;-38
2022/01/09 01:18:17;;;;;;;22.55;8.75;;;;;;;29.34;62.59;101298.38;5089155;27;70781;-39
2022/01/09 01:20:47;;;;;;;37.20;10.02;;;;;;;29.32;62.49;101307.72;5092938;27;65805;-38
2022/01/09 01:23:18;;;;;;;21.23;8.73;;;;;;;29.32;62.96;101310.41;5086516;27;70627;-38
2022/01/09 01:25:51;;;;;;;26.02;9.77;;;;;;;29.25;62.22;101310.34;5083859;27;66612;-39
2022/01/09 01:28:22;;;;;;;31.73;10.57;;;;;;;29.31;62.88;101322.22;5084107;27;70346;-38
2022/01/09 01:30:52;;;;;;;32.05;10.43;;;;;;;29.30;62.66;101318.69;5093515;27;66456;-38
2022/01/09 01:33:24;;;;;;;26.52;10.15;;;;;;;29.30;62.46;101318.69;5090393;27;70523;-38
2022/01/09 01:35:54;;;;;;;31.65;10.65;;;;;;;29.27;62.70;101319.09;5090765;27;65871;-39
2022/01/09 01:38:24;;;;;;;23.23;10.70;;;;;;;29.23;63.16;101312.44;5090308;27;69089;-38
2022/01/09 01:40:55;;;;;;;30.48;11.52;;;;;;;29.27;63.12;101319.09;5082710;27;65569;-39
2022/01/09 01:43:26;;;;;;;27.08;12.50;;;;;;;29.26;63.19;101317.44;5094008;27;69500;-38
2022/01/09 01:46:00;;;;;;;21.50;11.30;;;;;;;29.26;63.28;101311.22;5088912;27;66092;-38
2022/01/09 01:48:36;;;;;;;31.50;14.98;;;;;;;29.29;63.80;101311.63;5087103;27;69369;-38
2022/01/09 01:51:12;;;;;;;50.88;16.92;;;;;;;29.05;63.49;101277.00;5096974;27;66007;-38
2022/01/09 01:53:45;;;;;;;44.75;16.45;;;;;;;29.10;63.67;101279.94;5095145;27;70183;-37
2022/01/09 01:56:19;;;;;;;43.13;17.45;;;;;;;29.32;63.82;101311.25;5087415;27;66493;-38
2022/01/09 01:58:51;;;;;;;53.28;17.20;;;;;;;29.09;63.72;101262.06;5086962;27;69567;-37
2022/01/09 02:01:22;;;;;;;50.17;16.02;;;;;;;29.37;64.17;101297.97;5084370;27;66663;-37
2022/01/09 02:03:52;;;;;;;18.70;11.18;;;;;;;29.42;63.60;101299.22;5085353;27;70387;-37
2022/01/09 02:06:23;;;;;;;24.40;12.32;;;;;;;29.45;63.37;101293.41;5084114;27;65061;-37
2022/01/09 02:08:54;;;;;;;26.88;13.00;;;;;;;29.50;63.67;101290.94;5088751;27;70361;-38
2022/01/09 02:11:25;;;;;;;29.45;13.32;;;;;;;29.55;63.85;101293.88;5087026;27;65538;-38
2022/01/09 02:13:55;;;;;;;20.65;11.82;;;;;;;29.57;63.10;101286.41;5086410;27;69396;-38
2022/01/09 02:16:26;;;;;;;23.45;12.25;;;;;;;29.63;63.21;101282.94;5087885;27;65694;-38
2022/01/09 02:19:02;;;;;;;20.10;11.80;;;;;;;29.63;63.08;101277.53;5084244;27;69181;-39
2022/01/09 02:21:32;;;;;;;17.27;11.02;;;;;;;29.71;62.99;101271.09;5081451;27;66082;-37
2022/01/09 02:24:07;;;;;;;23.63;11.15;;;;;;;29.75;63.29;101267.78;5088480;27;70995;-39
2022/01/09 02:26:38;;;;;;;19.40;11.43;;;;;;;29.80;62.67;101262.59;5086587;27;66558;-37
2022/01/09 02:29:08;;;;;;;11.57;9.60;;;;;;;29.81;63.21;101253.47;5096098;27;69258;-39
2022/01/09 02:31:39;;;;;;;18.23;11.25;;;;;;;29.80;62.88;101249.06;5090301;27;66753;-39
2022/01/09 02:34:09;;;;;;;15.13;10.73;;;;;;;29.88;63.12;101252.63;5085701;27;70302;-38
2022/01/09 02:36:40;;;;;;;16.95;10.07;;;;;;;29.92;62.83;101256.59;5085236;27;66434;-37
2022/01/09 02:39:10;;;;;;;21.92;11.27;;;;;;;29.95;62.28;101250.75;5091315;27;69641;-38
2022/01/09 02:41:40;;;;;;;14.52;10.13;;;;;;;29.97;62.72;101249.53;5079899;27;65518;-38
2022/01/09 02:44:11;;;;;;;15.38;10.40;;;;;;;30.00;62.29;101248.28;5081443;27;70398;-38
2022/01/09 02:49:18;;;;;;;13.85;8.98;;;;;;;30.01;62.05;101239.16;5084054;27;70182;-38
2022/01/09 02:51:53;;;;;;;9.38;8.48;;;;;;;30.05;62.50;101241.22;5070833;28;65440;-40
2022/01/09 02:57:12;;;;;;;13.90;9.07;;;;;;;30.09;62.24;101225.44;5083472;27;65435;-38
2022/01/09 02:59:42;;;;;;;11.70;9.05;;;;;;;30.12;62.20;101225.00;5081173;27;70454;-37
2022/01/09 03:02:12;;;;;;;11.70;9.35;;;;;;;30.11;61.53;101212.50;5083672;27;66908;-38
2022/01/09 03:04:42;;;;;;;13.93;9.70;;;;;;;30.15;61.50;101223.75;5081375;27;70328;-38
2022/01/09 03:07:13;;;;;;;9.70;8.77;;;;;;;30.16;61.87;101220.84;5086338;27;66405;-37
2022/01/09 03:10:27;;;;;;;11.50;9.23;;;;;;;30.11;62.09;101217.91;5085804;27;70183;-37
2022/01/09 03:12:58;;;;;;;9.98;9.07;;;;;;;30.19;61.33;101220.41;5085474;27;66074;-38
2022/01/09 03:15:28;;;;;;;12.40;8.77;;;;;;;30.23;61.63;101220.88;5091099;27;71085;-39
2022/01/09 03:17:59;;;;;;;9.77;8.82;;;;;;;30.24;61.21;101211.72;5083519;27;66086;-37
2022/01/09 03:20:30;;;;;;;10.13;8.88;;;;;;;30.29;61.57;101214.63;5085016;27;70400;-37
2022/01/09 03:23:00;;;;;;;9.35;8.55;;;;;;;30.31;60.87;101209.00;5082780;27;66310;-37
2022/01/09 03:25:31;;;;;;;10.73;9.27;;;;;;;30.28;61.37;101197.56;5081852;27;70333;-37
2022/01/09 03:28:01;;;;;;;21.08;11.23;;;;;;;30.33;61.51;101198.81;5086967;27;66295;-38
2022/01/09 03:30:31;;;;;;;20.08;15.27;;;;;;;30.34;60.34;101197.75;5089799;27;69699;-37
2022/01/09 03:33:02;;;;;;;28.08;17.63;;;;;;;30.28;58.90;101188.59;5080990;27;65983;-38
2022/01/09 03:35:32;;;;;;;24.30;18.30;;;;;;;30.31;59.45;101187.34;5085267;27;69521;-36
2022/01/09 03:38:03;;;;;;;29.60;18.42;;;;;;;30.31;59.44;101181.94;5080973;27;66743;-37
2022/01/09 03:40:33;;;;;;;31.67;17.20;;;;;;;30.25;59.80;101179.03;5087501;27;69956;-37
2022/01/09 03:43:03;;;;;;;38.90;18.70;;;;;;;30.25;59.87;101176.31;5086991;27;66269;-38
2022/01/09 03:45:34;;;;;;;43.47;22.98;;;;;;;30.28;58.86;101181.34;5086572;27;69621;-37
2022/01/09 03:48:04;;;;;;;40.40;23.05;;;;;;;30.30;59.22;101175.69;5088234;27;66451;-37
2022/01/09 03:50:35;;;;;;;38.42;23.08;;;;;;;30.31;58.67;101173.81;5086190;27;70372;-37
2022/01/09 03:53:06;;;;;;;34.35;22.48;;;;;;;30.32;58.77;101170.09;5083966;27;65734;-37
2022/01/09 03:55:37;;;;;;;36.15;22.40;;;;;;;30.22;58.22;101155.09;5082285;27;69537;-38
2022/01/09 03:58:07;;;;;;;36.60;22.63;;;;;;;30.29;58.63;101160.50;5091808;27;66507;-38
2022/01/09 04:00:37;;;;;;;41.97;23.73;;;;;;;30.28;57.86;101153.41;5090430;27;69972;-38
2022/01/09 04:03:08;;;;;;;37.25;23.55;;;;;;;30.33;57.66;101152.78;5086145;27;65713;-37
2022/01/09 04:05:38;;;;;;;28.45;20.77;;;;;;;30.36;57.72;101146.97;5089832;27;69514;-37
2022/01/09 04:08:09;;;;;;;36.55;21.63;;;;;;;30.38;57.95;101145.72;5085933;27;65926;-38
2022/01/09 04:10:42;;;;;;;31.88;20.80;;;;;;;30.41;57.62;101141.75;5079865;27;69668;-38
2022/01/09 04:13:13;;;;;;;;;;;;;;;30.15;57.89;101138.00;5086083;27;66163;-37
2022/01/09 04:15:48;;;;;;;32.15;20.48;;;;;;;30.45;57.57;101121.31;5083083;27;69245;-38
2022/01/09 04:18:20;;;;;;;30.60;21.15;;;;;;;30.49;57.30;101118.00;5090733;27;65505;-38
2022/01/09 04:20:54;;;;;;;37.42;23.00;;;;;;;30.56;57.20;101117.13;5095335;27;70620;-38
2022/01/09 04:23:24;;;;;;;38.55;21.45;;;;;;;30.59;57.01;101112.16;5091619;27;65646;-37
2022/01/09 04:25:54;;;;;;;38.45;26.65;;;;;;;30.63;57.20;101102.53;5097206;27;70598;-37
2022/01/09 04:28:25;;;;;;;42.78;25.10;;;;;;;30.67;56.61;101101.09;5093783;27;66294;-37
2022/01/09 04:30:56;;;;;;;36.63;24.70;;;;;;;30.72;56.42;101085.00;5089926;27;69940;-37
2022/01/09 04:33:26;;;;;;;35.78;22.40;;;;;;;30.73;56.93;101086.69;5095536;27;66694;-37
2022/01/09 04:35:57;;;;;;;42.20;21.83;;;;;;;30.78;56.58;101082.50;5094337;27;70209;-39
2022/01/09 04:38:27;;;;;;;33.00;20.60;;;;;;;30.80;57.38;101075.00;5088447;27;67083;-38
2022/01/09 04:40:57;;;;;;;39.97;20.92;;;;;;;30.82;56.38;101075.63;5090353;27;69326;-38
2022/01/09 04:43:28;;;;;;;36.70;22.25;;;;;;;30.81;55.98;101072.06;5087143;27;65474;-38
2022/01/09 04:45:59;;;;;;;39.10;22.38;;;;;;;30.87;55.92;101064.97;5088969;27;69507;-37
2022/01/09 04:48:30;;;;;;;43.50;21.58;;;;;;;30.89;56.22;101057.47;5094206;27;65475;-38
2022/01/09 04:51:00;;;;;;;38.72;22.02;;;;;;;30.89;56.38;101052.88;5087948;27;69286;-38
2022/01/09 04:53:30;;;;;;;42.17;23.05;;;;;;;30.81;56.23;101036.03;5072881;27;65175;-39
2022/01/09 04:56:01;;;;;;;41.58;22.83;;;;;;;30.86;55.49;101026.22;5087664;27;70374;-39
2022/01/09 04:58:31;;;;;;;34.75;21.02;;;;;;;30.98;55.11;101042.63;5091013;27;66269;-37
2022/01/09 05:01:01;;;;;;;39.08;21.55;;;;;;;31.04;54.79;101044.47;5087462;27;70221;-38
2022/01/09 05:03:32;;;;;;;33.92;22.10;;;;;;;31.09;54.81;101038.38;5083080;27;66734;-38
2022/01/09 05:06:02;;;;;;;28.58;19.95;;;;;;;31.12;55.07;101029.81;5087389;27;70005;-37
2022/01/09 05:08:32;;;;;;;37.13;19.95;;;;;;;31.08;54.83;101018.59;5087401;27;66222;-37
2022/01/09 05:11:02;;;;;;;39.35;22.63;;;;;;;31.14;54.84;101015.00;5090901;27;69603;-37
2022/01/09 05:13:34;;;;;;;35.85;23.13;;;;;;;31.09;55.00;101000.44;5085514;27;66463;-36
2022/01/09 05:16:04;;;;;;;47.60;24.37;;;;;;;31.24;54.89;101011.00;5086122;27;69088;-36
2022/01/09 05:18:49;;;;;;;33.63;22.58;;;;;;;31.27;54.91;101005.13;5083221;27;66184;-38
2022/01/09 05:21:20;;;;;;;38.58;23.00;;;;;;;31.13;55.23;100975.41;5091734;27;71189;-37
2022/01/09 05:23:50;;;;;;;36.40;21.85;;;;;;;31.28;55.11;100985.09;5089585;27;66997;-37
2022/01/09 05:26:20;;;;;;;42.60;21.55;;;;;;;31.28;54.84;100979.69;5091768;27;70187;-36
2022/01/09 05:28:50;;;;;;;31.58;20.90;;;;;;;31.26;55.94;100981.78;5088552;27;66610;-38
2022/01/09 05:31:20;;;;;;;31.02;20.38;;;;;;;31.26;55.79;100968.22;5086076;27;69285;-37
2022/01/09 05:33:51;;;;;;;45.22;21.58;;;;;;;31.27;55.41;100967.19;5089118;27;66018;-36
2022/01/09 05:36:24;;;;;;;39.40;21.33;;;;;;;31.28;54.35;100958.00;5084887;27;69403;-37
2022/01/09 05:38:54;;;;;;;35.45;21.20;;;;;;;31.30;54.76;100955.91;5087775;27;66064;-37
2022/01/09 05:41:25;;;;;;;27.10;20.20;;;;;;;31.30;54.92;100945.88;5092903;27;70021;-38
2022/01/09 05:43:56;;;;;;;38.20;20.40;;;;;;;31.33;54.90;100941.91;5097535;27;65901;-36
2022/01/09 05:46:26;;;;;;;32.10;19.40;;;;;;;31.34;55.88;100940.84;5089606;27;70135;-36
2022/01/09 05:48:59;;;;;;;31.23;18.83;;;;;;;31.23;55.21;100928.00;5086039;27;66012;-36
2022/01/09 05:51:29;;;;;;;41.92;18.83;;;;;;;31.14;54.27;100928.28;5086967;27;69704;-38
2022/01/09 05:54:00;;;;;;;45.22;17.58;;;;;;;30.97;52.57;100926.38;5082813;27;66136;-36
2022/01/09 05:56:30;;;;;;;36.53;16.85;;;;;;;30.82;51.89;100918.56;5083653;27;70319;-36
2022/01/09 05:59:00;;;;;;;39.63;16.40;;;;;;;30.66;50.91;100909.88;5093737;27;66264;-37
2022/01/09 06:01:31;;;;;;;38.78;15.80;;;;;;;30.50;50.94;100899.56;5087667;27;70524;-37
2022/01/09 06:04:01;;;;;;;29.15;14.82;;;;;;;30.42;50.08;100902.50;5083916;27;65685;-36
2022/01/09 06:06:34;;;;;;;22.38;15.18;;;;;;;30.34;48.45;100895.50;5088178;27;70391;-37
2022/01/09 06:09:04;;;;;;;25.02;15.00;;;;;;;30.23;48.52;100890.78;5084283;27;66467;-37
2022/01/09 06:11:35;;;;;;;25.58;13.90;;;;;;;30.14;47.28;100883.91;5087545;27;70485;-36
2022/01/09 06:14:05;;;;;;;29.42;14.00;;;;;;;30.02;47.71;100872.94;5084879;27;65702;-38
2022/01/09 06:16:35;;;;;;;15.98;12.73;;;;;;;29.96;46.53;100879.19;5088216;27;70023;-37
2022/01/09 06:19:05;;;;;;;12.55;11.43;;;;;;;29.97;45.97;100865.44;5084369;27;66090;-35
2022/01/09 06:21:35;;;;;;;12.82;11.65;;;;;;;29.96;45.75;100865.69;5090858;27;70053;-36
2022/01/09 06:24:06;;;;;;;13.10;11.88;;;;;;;29.93;45.46;100858.00;5094968;27;64703;-35
2022/01/09 06:26:36;;;;;;;15.95;12.30;;;;;;;29.90;45.61;100853.00;5084173;27;70524;-36
2022/01/09 06:29:06;;;;;;;13.20;12.05;;;;;;;29.80;44.46;100848.88;5087558;27;66196;-38
2022/01/09 06:31:36;;;;;;;15.32;11.52;;;;;;;29.80;44.42;100843.47;5085830;27;69963;-34
2022/01/09 06:34:07;;;;;;;13.80;11.40;;;;;;;29.78;44.99;100840.16;5087927;27;66282;-37
2022/01/09 06:36:37;;;;;;;16.83;11.45;;;;;;;29.77;44.86;100843.91;5090920;27;70206;-38
2022/01/09 06:39:08;;;;;;;13.02;11.90;;;;;;;29.78;45.10;100832.06;5093856;27;66408;-35
2022/01/09 06:41:38;;;;;;;12.32;11.13;;;;;;;29.76;44.89;100825.19;5093124;27;69099;-36
2022/01/09 06:44:08;;;;;;;12.82;11.45;;;;;;;29.76;45.25;100820.63;5087334;27;65390;-36
2022/01/09 06:46:39;;;;;;;11.23;10.32;;;;;;;29.54;44.17;100789.47;5088874;27;69904;-36
2022/01/09 06:49:11;;;;;;;11.80;10.75;;;;;;;29.71;43.75;100820.41;5085144;27;65829;-35
2022/01/09 06:51:41;;;;;;;12.32;11.10;;;;;;;29.65;43.62;100812.34;5091118;27;70017;-37
2022/01/09 06:54:13;;;;;;;12.73;11.43;;;;;;;29.58;43.24;100796.09;5081220;27;66498;-36
2022/01/09 06:56:44;;;;;;;11.43;10.33;;;;;;;29.42;43.18;100774.94;5083746;27;69857;-37
2022/01/09 06:59:14;;;;;;;12.90;11.27;;;;;;;29.52;42.91;100791.56;5093481;27;65184;-37
2022/01/09 07:01:47;;;;;;;11.15;10.32;;;;;;;29.55;43.12;100801.94;5085991;27;69941;-37
2022/01/09 07:04:21;;;;;;;11.98;10.35;;;;;;;29.53;42.21;100801.31;5090699;27;66171;-36
2022/01/09 07:07:09;;;;;;;13.95;10.82;;;;;;;29.47;42.81;100796.78;5089403;27;69408;-36
2022/01/09 07:09:40;;;;;;;11.80;10.80;;;;;;;29.46;42.49;100787.84;5084587;27;66515;-36
2022/01/09 07:12:11;;;;;;;11.15;10.20;;;;;;;29.43;42.48;100782.03;5087712;27;70598;-36
2022/01/09 07:14:42;;;;;;;11.80;10.80;;;;;;;29.38;41.92;100769.97;5082479;27;66382;-36
2022/01/09 07:17:23;;;;;;;11.07;10.00;;;;;;;29.42;40.87;100781.22;5092356;27;69902;-36
2022/01/09 07:19:57;;;;;;;11.00;10.07;;;;;;;29.44;42.11;100772.88;5082783;27;66326;-34
2022/01/09 07:22:28;;;;;;;12.70;10.70;;;;;;;29.38;43.02;100759.16;5090722;27;69088;-39
2022/01/09 07:24:59;;;;;;;16.25;10.75;;;;;;;29.51;43.08;100769.13;5086988;27;66719;-37
2022/01/09 07:27:29;;;;;;;20.00;11.20;;;;;;;29.58;43.88;100763.66;5085252;27;69471;-36
2022/01/09 07:30:00;;;;;;;16.67;10.98;;;;;;;29.62;43.28;100764.91;5084723;27;66365;-38
2022/01/09 07:32:31;;;;;;;23.35;10.77;;;;;;;29.66;43.05;100759.94;5082314;27;70168;-38
2022/01/09 07:35:02;;;;;;;12.07;10.85;;;;;;;29.68;43.11;100755.97;5083556;27;66755;-37
2022/01/09 07:37:33;;;;;;;11.32;9.68;;;;;;;29.71;42.10;100752.84;5083551;27;71058;-37
2022/01/09 07:40:04;;;;;;;18.05;10.10;;;;;;;29.73;43.16;100750.75;5087097;27;65378;-39
2022/01/09 07:42:35;;;;;;;19.35;10.25;;;;;;;29.79;43.43;100744.47;5086198;27;70386;-39
2022/01/09 07:45:07;;;;;;;14.98;11.07;;;;;;;29.84;42.93;100751.94;5087742;27;66576;-39
2022/01/09 07:47:38;;;;;;;10.90;10.07;;;;;;;29.86;42.95;100749.00;5085429;27;69662;-37
2022/01/09 07:50:10;;;;;;;14.35;10.50;;;;;;;29.53;41.93;100687.81;5086762;27;66407;-38
2022/01/09 07:52:41;;;;;;;11.55;10.55;;;;;;;29.93;42.15;100745.22;5088129;27;69269;-39
2022/01/09 07:55:12;;;;;;;11.70;10.18;;;;;;;29.91;42.29;100735.69;5087767;27;66377;-39
2022/01/09 07:57:43;;;;;;;18.42;10.13;;;;;;;29.93;41.99;100741.72;5085777;27;69913;-37
2022/01/09 08:00:16;;;;;;;19.58;9.82;;;;;;;29.74;41.93;100695.63;5091448;27;65371;-38
2022/01/09 08:02:49;;;;;;;32.50;10.73;;;;;;;30.02;42.00;100740.38;5085621;27;70714;-38
2022/01/09 08:05:19;;;;;;;;;;;;;;;29.82;42.65;100738.63;5090010;27;65982;-39
2022/01/09 08:07:50;;;;;;;31.40;11.30;;;;;;;30.07;42.29;100740.56;5092901;27;70140;-38
2022/01/09 08:10:21;;;;;;;34.47;12.17;;;;;;;30.11;42.84;100730.13;5093016;27;65160;-37
2022/01/09 08:12:52;;;;;;;25.02;11.43;;;;;;;30.10;42.15;100728.50;5093383;27;70488;-39
2022/01/09 08:15:22;;;;;;;45.15;12.52;;;;;;;30.15;42.44;100732.19;5094101;27;66560;-38
2022/01/09 08:17:54;;;;;;;43.28;13.60;;;;;;;30.21;42.79;100736.72;5090670;27;70796;-39
2022/01/09 08:20:25;;;;;;;45.90;12.32;;;;;;;30.21;42.35;100735.91;5093248;27;65662;-39
2022/01/09 08:22:55;;;;;;;33.08;12.32;;;;;;;30.23;42.90;100742.78;5090449;27;70530;-38
2022/01/09 08:25:26;;;;;;;46.30;12.40;;;;;;;30.23;42.33;100739.25;5089087;27;65854;-37
2022/01/09 08:27:57;;;;;;;35.47;12.07;;;;;;;30.28;42.54;100739.41;5090958;27;68949;-37
2022/01/09 08:30:28;;;;;;;41.75;12.90;;;;;;;30.11;43.00;100709.31;5081806;27;66451;-38
2022/01/09 08:32:59;;;;;;;32.45;11.75;;;;;;;30.31;42.29;100741.66;5088714;27;70233;-36
2022/01/09 08:35:29;;;;;;;36.88;12.13;;;;;;;30.31;42.45;100740.84;5095132;27;66218;-37
2022/01/09 08:38:00;;;;;;;39.85;12.35;;;;;;;30.27;42.00;100741.28;5088745;27;70451;-36
2022/01/09 08:40:31;;;;;;;29.95;11.82;;;;;;;30.24;41.50;100733.59;5091166;27;66477;-35
2022/01/09 08:43:02;;;;;;;23.63;11.82;;;;;;;30.25;41.17;100739.84;5088564;27;70220;-37
2022/01/09 08:45:32;;;;;;;25.88;11.88;;;;;;;30.24;41.32;100736.31;5068539;27;65085;-36
2022/01/09 08:48:03;;;;;;;23.42;12.40;;;;;;;30.20;40.80;100729.66;5091756;27;70333;-37
2022/01/09 08:50:34;;;;;;;17.03;12.00;;;;;;;30.23;40.79;100734.66;5093165;27;66288;-37
2022/01/09 08:53:05;;;;;;;21.20;12.18;;;;;;;30.13;40.39;100712.63;5093195;27;69012;-37
2022/01/09 08:55:36;;;;;;;13.15;11.27;;;;;;;30.23;40.70;100731.97;5092582;27;67123;-37
2022/01/09 08:58:07;;;;;;;23.27;12.52;;;;;;;30.24;40.34;100736.31;5095118;27;70464;-36
2022/01/09 09:00:38;;;;;;;22.60;11.93;;;;;;;30.23;40.41;100734.66;5093559;27;66673;-37
2022/01/09 09:03:10;;;;;;;13.68;11.65;;;;;;;30.24;40.82;100736.31;5095361;27;69589;-38
2022/01/09 09:05:40;;;;;;;16.65;11.35;;;;;;;30.26;40.08;100738.81;5095990;27;67064;-37
2022/01/09 09:08:11;;;;;;;15.43;11.93;;;;;;;30.27;40.23;100735.88;5094242;27;69539;-37
2022/01/09 09:10:42;;;;;;;14.52;12.50;;;;;;;30.24;40.33;100725.50;5091362;27;66159;-36
2022/01/09 09:13:13;;;;;;;16.65;11.48;;;;;;;30.25;39.64;100737.13;5093213;27;70015;-38
2022/01/09 09:15:43;;;;;;;34.10;11.80;;;;;;;30.26;39.81;100731.53;5092012;27;66851;-38
2022/01/09 09:18:14;;;;;;;19.98;11.48;;;;;;;30.21;39.69;100730.50;5092400;27;70404;-38
2022/01/09 09:20:45;;;;;;;16.88;11.93;;;;;;;30.26;39.64;100734.22;5092638;27;66339;-37
2022/01/09 09:23:16;;;;;;;18.77;11.98;;;;;;;30.27;39.42;100729.63;5092389;27;70499;-39
2022/01/09 09:25:47;;;;;;;15.45;12.88;;;;;;;30.26;39.61;100738.81;5094584;27;65871;-38
2022/01/09 09:28:19;;;;;;;11.48;10.38;;;;;;;30.24;39.82;100732.78;5092350;27;70284;-38
2022/01/09 09:30:49;;;;;;;14.43;11.87;;;;;;;30.21;39.70;100736.72;5092519;27;66280;-39
2022/01/09 09:33:21;;;;;;;31.50;13.65;;;;;;;30.21;40.84;100736.72;5093317;27;69521;-37
2022/01/09 09:35:52;;;;;;;23.05;14.52;;;;;;;30.31;44.86;100746.25;5089891;27;66046;-39
2022/01/09 09:38:23;;;;;;;50.43;17.93;;;;;;;30.42;47.85;100740.13;5090959;27;69869;-37
2022/01/09 09:40:53;;;;;;;44.17;22.35;;;;;;;30.62;50.77;100732.69;5094342;27;65930;-37
2022/01/09 09:43:25;;;;;;;57.92;23.60;;;;;;;30.81;50.71;100743.56;5092853;27;68653;-36
2022/01/09 09:45:56;;;;;;;48.17;23.75;;;;;;;31.00;52.18;100750.66;5092800;27;66133;-38
2022/01/09 09:48:27;;;;;;;45.88;23.98;;;;;;;31.15;52.40;100751.13;5086399;27;70174;-36
2022/01/09 09:50:58;;;;;;;48.30;24.23;;;;;;;31.29;52.83;100756.41;5093368;27;66576;-36
2022/01/09 09:53:28;;;;;;;47.55;22.75;;;;;;;31.39;52.48;100743.16;5082952;27;69563;-37
2022/01/09 09:56:02;;;;;;;39.20;22.88;;;;;;;31.51;52.21;100748.66;5089837;27;65625;-36
2022/01/09 09:58:33;;;;;;;40.85;23.77;;;;;;;31.41;52.76;100724.81;5082108;27;70115;-35
2022/01/09 10:01:08;;;;;;;46.00;25.90;;;;;;;31.65;52.71;100746.59;5086719;27;65821;-36
2022/01/09 10:03:39;;;;;;;47.05;26.02;;;;;;;31.76;52.23;100765.66;5081544;27;70345;-36
2022/01/09 10:06:41;;;;;;;53.15;24.75;;;;;;;31.78;53.69;100763.50;5082098;27;66296;-37
2022/01/09 10:09:15;;;;;;;58.78;24.95;;;;;;;31.61;53.33;100722.66;5089322;27;70498;-35
2022/01/09 10:11:48;;;;;;;58.85;26.17;;;;;;;31.95;52.32;100774.59;5082356;27;66213;-36
2022/01/09 10:14:24;;;;;;;38.08;20.70;;;;;;;32.00;54.02;100782.88;5083464;27;69381;-36
2022/01/09 10:17:12;;;;;;;36.92;19.83;;;;;;;31.98;56.29;100792.28;5082115;27;66652;-36
2022/01/09 10:20:04;;;;;;;25.70;16.60;;;;;;;32.00;57.46;100791.00;5078178;27;70315;-34
2022/01/09 10:22:40;;;;;;;25.37;16.67;;;;;;;32.05;57.54;100796.56;5087818;27;65908;-35
2022/01/09 10:25:38;;;;;;;33.03;15.68;;;;;;;31.98;58.44;100789.56;5084922;27;70400;-36
2022/01/09 10:28:20;;;;;;;25.50;13.23;;;;;;;32.02;57.88;100798.94;5080468;27;65200;-35
2022/01/09 10:30:52;;;;;;;32.25;13.35;;;;;;;32.00;57.59;100810.00;5069518;27;70207;-36
2022/01/09 10:33:30;;;;;;;36.92;13.13;;;;;;;31.98;58.53;100806.72;5087651;27;66160;-35
2022/01/09 10:36:00;;;;;;;31.13;12.40;;;;;;;32.03;58.77;100825.00;5085843;27;69472;-35
2022/01/09 10:38:42;;;;;;;26.65;12.27;;;;;;;32.03;59.33;100825.81;5085664;27;66354;-36
2022/01/09 10:41:40;;;;;;;37.95;11.93;;;;;;;32.02;58.41;100835.03;5081566;27;69525;-38
2022/01/09 10:44:25;;;;;;;33.63;12.38;;;;;;;31.94;59.20;100827.19;5086374;27;66531;-35
2022/01/09 10:47:09;;;;;;;18.13;11.20;;;;;;;31.91;58.90;100835.78;5090995;27;69967;-35
2022/01/09 10:49:43;;;;;;;26.08;11.25;;;;;;;31.68;59.13;100800.38;5086627;27;65521;-35
2022/01/09 10:52:26;;;;;;;21.98;11.43;;;;;;;31.87;59.10;100831.84;5081285;27;70495;-35
2022/01/09 10:54:57;;;;;;;;;;;;;;;31.64;61.19;100837.97;5078842;27;66360;-36
2022/01/09 10:57:32;;;;;;;24.92;11.60;;;;;;;31.74;59.59;100823.88;5094966;27;69793;-35
2022/01/09 11:00:08;;;;;;;21.02;11.02;;;;;;;31.81;59.85;100849.03;5092103;27;66318;-35
2022/01/09 11:02:39;;;;;;;20.02;11.07;;;;;;;31.78;59.25;100852.19;5086472;27;70706;-36
2022/01/09 11:05:10;;;;;;;19.17;10.20;;;;;;;31.75;59.15;100856.19;5085959;27;66224;-35
2022/01/09 11:07:49;;;;;;;21.80;10.68;;;;;;;31.72;59.29;100850.41;5086746;27;70035;-36
2022/01/09 11:10:21;;;;;;;24.70;10.20;;;;;;;31.70;59.37;100855.22;5085042;27;66356;-36
2022/01/09 11:12:58;;;;;;;15.93;10.00;;;;;;;31.60;58.64;100845.72;5082728;27;69393;-37
2022/01/09 11:18:45;;;;;;;20.33;11.07;;;;;;;31.55;59.18;100855.59;5093161;27;69942;-37
2022/01/09 11:21:16;;;;;;;17.95;11.57;;;;;;;31.56;59.01;100866.19;5068870;27;65134;-36
2022/01/09 11:24:11;;;;;;;21.67;12.10;;;;;;;31.25;59.56;100836.50;5068353;27;69363;-35
2022/01/09 11:27:10;;;;;;;18.65;11.65;;;;;;;31.40;59.04;100874.97;5083500;27;65893;-36
2022/01/09 11:30:09;;;;;;;20.73;12.27;;;;;;;31.45;58.33;100893.25;5081034;27;68549;-36
2022/01/09 11:32:49;;;;;;;24.52;12.60;;;;;;;31.47;58.15;100883.00;5080339;27;65759;-37
2022/01/09 11:35:35;;;;;;;19.00;12.20;;;;;;;31.42;58.27;100889.09;5079302;27;69947;-35
2022/01/09 11:38:13;;;;;;;20.40;12.02;;;;;;;31.14;57.92;100848.88;5079714;27;65526;-35
2022/01/09 11:40:43;;;;;;;24.77;13.70;;;;;;;31.20;57.55;100860.72;5083095;27;69498;-35
2022/01/09 11:43:17;;;;;;;39.45;14.85;;;;;;;31.38;57.61;100901.44;5082811;27;65340;-36